This is the latest recevied weather packets stored in our database for station/object DL5XL-13. If no packets are shown the sender has not sent any weather packets the latest 10 day(s).
| Time | Temp. | Humidity | Pressure | Rain* | Wind** | Luminosity | Snow |
|---|---|---|---|---|---|---|---|
| 1787887344 | 19.44° C | 92% | 1006 hPa | 0.76 mm | - | - | - |
| 1787886863 | 19.44° C | 91% | 1006 hPa | - | - | - | - |
| 1787886860 | 19.44° C | 91% | 1006 hPa | - | - | - | - |
| 1787886613 | 19.44° C | 91% | 1006 hPa | - | - | - | - |
| 1787885783 | 19.44° C | 90% | 1007 hPa | - | - | - | - |
| 1787885054 | 19.44° C | 89% | 1007 hPa | 0.76 mm | - | - | - |
| 1787884302 | 19.44° C | 87% | 1007 hPa | - | - | - | - |
| 1787883677 | 19.44° C | 87% | 1007 hPa | - | - | - | - |
| 1787883674 | 19.44° C | 87% | 1007 hPa | - | - | - | - |
| 1787883537 | 20° C | 84% | 1007 hPa | 4.83 mm | - | - | - |
| 1787882714 | 20° C | 84% | 1007 hPa | 4.83 mm | - | - | - |
| 1787881813 | 20.56° C | 80% | 1007 hPa | 8.64 mm | - | - | - |
| 1787880993 | 20.56° C | 78% | 1007 hPa | 7.37 mm | - | - | - |
| 1787880616 | 20.56° C | 77% | 1007 hPa | 4.06 mm | - | - | - |
| 1787880168 | 20.56° C | 77% | 1007 hPa | 4.06 mm | - | - | - |
| 1787879359 | 20.56° C | 77% | 1007 hPa | 3.56 mm | - | - | - |
| 1787878528 | 20.56° C | 77% | 1007 hPa | 2.54 mm | - | - | - |
| 1787877781 | 20.56° C | 77% | 1007 hPa | 0.51 mm | - | - | - |
| 1787877607 | 20.56° C | 77% | 1007 hPa | 0.51 mm | - | - | - |
| 1787876929 | 20.56° C | 77% | 1007 hPa | 0.51 mm | - | - | - |
| 1787876147 | 20.56° C | 77% | 1007 hPa | 0.25 mm | - | - | - |
| 1787875339 | 21.11° C | 77% | 1008 hPa | - | - | - | - |
| 1787874553 | 21.67° C | 77% | 1008 hPa | - | - | - | - |
| 1787874214 | 21.67° C | 77% | 1008 hPa | - | - | - | - |
| 1787873759 | 21.67° C | 77% | 1008 hPa | - | - | - | - |
* Rain latest hour (hover to see other rain measurements)
** Current wind speed in m/s (hover to see current wind gust speed)